sensor_id;sensor_type;location;lat;lon;timestamp;P1;durP1;ratioP1;P2;durP2;ratioP2
51654;SDS011;37732;53.106;7.030;2023-08-20T00:00:50;6.32;;;2.75;;
51654;SDS011;37732;53.106;7.030;2023-08-20T00:03:17;8.38;;;3.40;;
51654;SDS011;37732;53.106;7.030;2023-08-20T00:05:45;6.22;;;2.95;;
51654;SDS011;37732;53.106;7.030;2023-08-20T00:08:11;5.75;;;2.72;;
51654;SDS011;37732;53.106;7.030;2023-08-20T00:10:40;6.50;;;3.15;;
51654;SDS011;37732;53.106;7.030;2023-08-20T00:13:07;4.80;;;3.00;;
51654;SDS011;37732;53.106;7.030;2023-08-20T00:15:32;6.70;;;3.92;;
51654;SDS011;37732;53.106;7.030;2023-08-20T00:18:00;5.38;;;3.30;;
51654;SDS011;37732;53.106;7.030;2023-08-20T00:20:28;7.30;;;4.03;;
51654;SDS011;37732;53.106;7.030;2023-08-20T00:22:54;7.97;;;4.40;;
51654;SDS011;37732;53.106;7.030;2023-08-20T00:25:20;9.85;;;4.13;;
51654;SDS011;37732;53.106;7.030;2023-08-20T00:27:49;5.22;;;2.85;;
51654;SDS011;37732;53.106;7.030;2023-08-20T00:30:15;6.40;;;3.40;;
51654;SDS011;37732;53.106;7.030;2023-08-20T00:32:41;7.75;;;3.60;;
51654;SDS011;37732;53.106;7.030;2023-08-20T00:35:07;6.40;;;3.10;;
51654;SDS011;37732;53.106;7.030;2023-08-20T00:37:34;8.18;;;3.70;;
51654;SDS011;37732;53.106;7.030;2023-08-20T00:40:00;7.38;;;3.97;;
51654;SDS011;37732;53.106;7.030;2023-08-20T00:42:31;6.25;;;3.78;;
51654;SDS011;37732;53.106;7.030;2023-08-20T00:44:57;7.13;;;3.22;;
51654;SDS011;37732;53.106;7.030;2023-08-20T00:47:23;5.72;;;3.47;;
51654;SDS011;37732;53.106;7.030;2023-08-20T00:49:48;7.20;;;3.70;;
51654;SDS011;37732;53.106;7.030;2023-08-20T00:52:15;4.88;;;2.78;;
51654;SDS011;37732;53.106;7.030;2023-08-20T00:54:45;7.35;;;2.95;;
51654;SDS011;37732;53.106;7.030;2023-08-20T00:57:13;6.35;;;4.30;;
51654;SDS011;37732;53.106;7.030;2023-08-20T00:59:44;6.10;;;4.15;;
51654;SDS011;37732;53.106;7.030;2023-08-20T01:02:17;13.10;;;5.22;;
51654;SDS011;37732;53.106;7.030;2023-08-20T01:04:46;9.85;;;3.80;;
51654;SDS011;37732;53.106;7.030;2023-08-20T01:12:36;6.25;;;4.30;;
51654;SDS011;37732;53.106;7.030;2023-08-20T01:15:02;6.95;;;3.20;;
51654;SDS011;37732;53.106;7.030;2023-08-20T01:17:29;8.15;;;3.13;;
51654;SDS011;37732;53.106;7.030;2023-08-20T01:19:54;8.73;;;4.32;;
51654;SDS011;37732;53.106;7.030;2023-08-20T01:28:30;9.55;;;4.18;;
51654;SDS011;37732;53.106;7.030;2023-08-20T01:30:58;9.18;;;4.15;;
51654;SDS011;37732;53.106;7.030;2023-08-20T01:33:28;6.57;;;3.55;;
51654;SDS011;37732;53.106;7.030;2023-08-20T01:35:55;6.22;;;3.08;;
51654;SDS011;37732;53.106;7.030;2023-08-20T01:38:25;5.93;;;3.00;;
51654;SDS011;37732;53.106;7.030;2023-08-20T01:40:51;6.70;;;3.60;;
51654;SDS011;37732;53.106;7.030;2023-08-20T01:43:17;7.28;;;3.67;;
51654;SDS011;37732;53.106;7.030;2023-08-20T01:45:43;5.75;;;3.30;;
51654;SDS011;37732;53.106;7.030;2023-08-20T01:48:09;5.25;;;3.00;;
51654;SDS011;37732;53.106;7.030;2023-08-20T01:50:35;6.85;;;3.78;;
51654;SDS011;37732;53.106;7.030;2023-08-20T01:53:04;7.60;;;4.07;;
51654;SDS011;37732;53.106;7.030;2023-08-20T01:55:30;8.05;;;3.50;;
51654;SDS011;37732;53.106;7.030;2023-08-20T01:57:56;6.00;;;3.10;;
51654;SDS011;37732;53.106;7.030;2023-08-20T02:00:22;5.75;;;3.35;;
51654;SDS011;37732;53.106;7.030;2023-08-20T02:02:48;6.32;;;3.42;;
51654;SDS011;37732;53.106;7.030;2023-08-20T02:05:14;7.82;;;4.22;;
51654;SDS011;37732;53.106;7.030;2023-08-20T02:07:44;8.00;;;3.97;;
51654;SDS011;37732;53.106;7.030;2023-08-20T02:10:10;8.65;;;4.07;;
51654;SDS011;37732;53.106;7.030;2023-08-20T02:12:36;7.63;;;4.18;;
51654;SDS011;37732;53.106;7.030;2023-08-20T02:15:02;11.75;;;5.32;;
51654;SDS011;37732;53.106;7.030;2023-08-20T02:17:29;9.27;;;5.18;;
51654;SDS011;37732;53.106;7.030;2023-08-20T02:19:55;7.05;;;4.35;;
51654;SDS011;37732;53.106;7.030;2023-08-20T02:22:24;5.35;;;3.75;;
51654;SDS011;37732;53.106;7.030;2023-08-20T02:24:49;7.40;;;3.65;;
51654;SDS011;37732;53.106;7.030;2023-08-20T02:27:15;7.50;;;4.20;;
51654;SDS011;37732;53.106;7.030;2023-08-20T02:29:41;7.07;;;4.10;;
51654;SDS011;37732;53.106;7.030;2023-08-20T02:32:07;9.15;;;4.53;;
51654;SDS011;37732;53.106;7.030;2023-08-20T02:34:36;7.25;;;3.28;;
51654;SDS011;37732;53.106;7.030;2023-08-20T02:37:02;5.78;;;3.55;;
51654;SDS011;37732;53.106;7.030;2023-08-20T02:39:28;7.85;;;3.65;;
51654;SDS011;37732;53.106;7.030;2023-08-20T02:41:55;7.18;;;3.38;;
51654;SDS011;37732;53.106;7.030;2023-08-20T02:44:21;8.27;;;4.28;;
51654;SDS011;37732;53.106;7.030;2023-08-20T02:46:47;8.57;;;4.32;;
51654;SDS011;37732;53.106;7.030;2023-08-20T02:49:13;8.00;;;4.15;;
51654;SDS011;37732;53.106;7.030;2023-08-20T02:51:40;8.55;;;3.95;;
51654;SDS011;37732;53.106;7.030;2023-08-20T02:54:07;9.45;;;3.95;;
51654;SDS011;37732;53.106;7.030;2023-08-20T02:56:33;7.15;;;3.70;;
51654;SDS011;37732;53.106;7.030;2023-08-20T02:58:59;5.70;;;3.58;;
51654;SDS011;37732;53.106;7.030;2023-08-20T03:01:26;6.20;;;4.22;;
51654;SDS011;37732;53.106;7.030;2023-08-20T03:03:55;8.18;;;4.10;;
51654;SDS011;37732;53.106;7.030;2023-08-20T03:06:21;8.80;;;4.35;;
51654;SDS011;37732;53.106;7.030;2023-08-20T03:08:47;11.63;;;6.57;;
51654;SDS011;37732;53.106;7.030;2023-08-20T03:11:13;8.32;;;4.80;;
51654;SDS011;37732;53.106;7.030;2023-08-20T03:13:39;11.82;;;6.70;;
51654;SDS011;37732;53.106;7.030;2023-08-20T03:16:05;8.75;;;4.78;;
51654;SDS011;37732;53.106;7.030;2023-08-20T03:18:35;8.13;;;5.25;;
51654;SDS011;37732;53.106;7.030;2023-08-20T03:21:02;11.50;;;6.57;;
51654;SDS011;37732;53.106;7.030;2023-08-20T03:23:29;11.45;;;7.78;;
51654;SDS011;37732;53.106;7.030;2023-08-20T03:26:01;12.52;;;6.88;;
51654;SDS011;37732;53.106;7.030;2023-08-20T03:28:27;13.88;;;7.93;;
51654;SDS011;37732;53.106;7.030;2023-08-20T03:30:54;10.55;;;6.07;;
51654;SDS011;37732;53.106;7.030;2023-08-20T03:33:22;16.50;;;9.60;;
51654;SDS011;37732;53.106;7.030;2023-08-20T03:35:48;14.82;;;9.75;;
51654;SDS011;37732;53.106;7.030;2023-08-20T03:38:15;17.13;;;10.25;;
51654;SDS011;37732;53.106;7.030;2023-08-20T03:40:44;11.20;;;8.40;;
51654;SDS011;37732;53.106;7.030;2023-08-20T03:43:10;16.60;;;11.07;;
51654;SDS011;37732;53.106;7.030;2023-08-20T03:45:36;13.02;;;8.88;;
51654;SDS011;37732;53.106;7.030;2023-08-20T03:48:05;16.42;;;7.93;;
51654;SDS011;37732;53.106;7.030;2023-08-20T03:50:32;10.77;;;6.38;;
51654;SDS011;37732;53.106;7.030;2023-08-20T03:52:58;14.68;;;9.48;;
51654;SDS011;37732;53.106;7.030;2023-08-20T03:55:27;8.45;;;7.22;;
51654;SDS011;37732;53.106;7.030;2023-08-20T03:57:54;10.73;;;6.20;;
51654;SDS011;37732;53.106;7.030;2023-08-20T04:00:21;11.15;;;7.38;;
51654;SDS011;37732;53.106;7.030;2023-08-20T04:02:48;11.05;;;7.30;;
51654;SDS011;37732;53.106;7.030;2023-08-20T04:05:15;8.98;;;6.30;;
51654;SDS011;37732;53.106;7.030;2023-08-20T04:07:45;9.27;;;6.38;;
51654;SDS011;37732;53.106;7.030;2023-08-20T04:10:12;12.15;;;6.80;;
51654;SDS011;37732;53.106;7.030;2023-08-20T04:12:38;8.55;;;6.85;;
51654;SDS011;37732;53.106;7.030;2023-08-20T04:15:05;10.70;;;7.00;;
51654;SDS011;37732;53.106;7.030;2023-08-20T04:17:31;12.82;;;9.30;;
51654;SDS011;37732;53.106;7.030;2023-08-20T04:20:02;11.88;;;8.70;;
51654;SDS011;37732;53.106;7.030;2023-08-20T04:22:30;11.10;;;7.78;;
51654;SDS011;37732;53.106;7.030;2023-08-20T04:24:56;11.75;;;7.07;;
51654;SDS011;37732;53.106;7.030;2023-08-20T04:27:26;11.55;;;7.60;;
51654;SDS011;37732;53.106;7.030;2023-08-20T04:29:53;9.60;;;7.57;;
51654;SDS011;37732;53.106;7.030;2023-08-20T04:32:19;9.50;;;7.88;;
51654;SDS011;37732;53.106;7.030;2023-08-20T04:34:46;10.63;;;7.22;;
51654;SDS011;37732;53.106;7.030;2023-08-20T04:37:26;13.95;;;9.18;;
51654;SDS011;37732;53.106;7.030;2023-08-20T04:39:52;9.32;;;8.05;;
51654;SDS011;37732;53.106;7.030;2023-08-20T04:42:18;8.13;;;6.43;;
51654;SDS011;37732;53.106;7.030;2023-08-20T04:44:44;8.43;;;6.32;;
51654;SDS011;37732;53.106;7.030;2023-08-20T04:47:12;8.52;;;6.43;;
51654;SDS011;37732;53.106;7.030;2023-08-20T04:49:39;8.95;;;6.45;;
51654;SDS011;37732;53.106;7.030;2023-08-20T04:52:06;9.90;;;7.25;;
51654;SDS011;37732;53.106;7.030;2023-08-20T04:54:32;10.88;;;6.88;;
51654;SDS011;37732;53.106;7.030;2023-08-20T04:56:58;10.20;;;8.23;;
51654;SDS011;37732;53.106;7.030;2023-08-20T04:59:25;10.63;;;7.90;;
51654;SDS011;37732;53.106;7.030;2023-08-20T05:01:54;12.52;;;7.72;;
51654;SDS011;37732;53.106;7.030;2023-08-20T05:04:21;12.82;;;9.75;;
51654;SDS011;37732;53.106;7.030;2023-08-20T05:06:50;12.48;;;9.68;;
51654;SDS011;37732;53.106;7.030;2023-08-20T05:09:18;14.38;;;11.05;;
51654;SDS011;37732;53.106;7.030;2023-08-20T05:11:46;13.15;;;9.63;;
51654;SDS011;37732;53.106;7.030;2023-08-20T05:14:15;12.82;;;10.30;;
51654;SDS011;37732;53.106;7.030;2023-08-20T05:16:43;13.70;;;11.32;;
51654;SDS011;37732;53.106;7.030;2023-08-20T05:19:12;14.13;;;8.82;;
51654;SDS011;37732;53.106;7.030;2023-08-20T05:21:39;15.82;;;10.82;;
51654;SDS011;37732;53.106;7.030;2023-08-20T05:24:10;15.65;;;10.45;;
51654;SDS011;37732;53.106;7.030;2023-08-20T05:26:37;18.10;;;13.18;;
51654;SDS011;37732;53.106;7.030;2023-08-20T05:29:03;15.18;;;11.90;;
51654;SDS011;37732;53.106;7.030;2023-08-20T05:31:34;20.48;;;13.98;;
51654;SDS011;37732;53.106;7.030;2023-08-20T05:34:01;18.88;;;13.57;;
51654;SDS011;37732;53.106;7.030;2023-08-20T05:36:27;17.98;;;14.23;;
51654;SDS011;37732;53.106;7.030;2023-08-20T05:38:53;19.95;;;15.15;;
51654;SDS011;37732;53.106;7.030;2023-08-20T05:41:19;20.48;;;14.60;;
51654;SDS011;37732;53.106;7.030;2023-08-20T05:43:46;23.33;;;15.40;;
51654;SDS011;37732;53.106;7.030;2023-08-20T05:46:14;18.45;;;14.10;;
51654;SDS011;37732;53.106;7.030;2023-08-20T05:48:42;20.02;;;15.93;;
51654;SDS011;37732;53.106;7.030;2023-08-20T05:51:11;18.48;;;15.95;;
51654;SDS011;37732;53.106;7.030;2023-08-20T05:53:39;18.65;;;14.82;;
51654;SDS011;37732;53.106;7.030;2023-08-20T05:56:09;20.52;;;15.48;;
51654;SDS011;37732;53.106;7.030;2023-08-20T05:58:35;24.17;;;17.05;;
51654;SDS011;37732;53.106;7.030;2023-08-20T06:01:03;20.63;;;14.80;;
51654;SDS011;37732;53.106;7.030;2023-08-20T06:03:31;18.70;;;15.25;;
51654;SDS011;37732;53.106;7.030;2023-08-20T06:05:59;20.98;;;14.98;;
51654;SDS011;37732;53.106;7.030;2023-08-20T06:08:29;24.30;;;15.85;;
51654;SDS011;37732;53.106;7.030;2023-08-20T06:10:55;16.20;;;14.45;;
51654;SDS011;37732;53.106;7.030;2023-08-20T06:13:25;20.33;;;15.15;;
51654;SDS011;37732;53.106;7.030;2023-08-20T06:15:53;19.10;;;15.40;;
51654;SDS011;37732;53.106;7.030;2023-08-20T06:18:24;18.13;;;14.68;;
51654;SDS011;37732;53.106;7.030;2023-08-20T06:20:52;20.95;;;14.80;;
51654;SDS011;37732;53.106;7.030;2023-08-20T06:23:18;17.98;;;14.52;;
51654;SDS011;37732;53.106;7.030;2023-08-20T06:25:45;16.75;;;13.52;;
51654;SDS011;37732;53.106;7.030;2023-08-20T06:28:11;14.10;;;11.98;;
51654;SDS011;37732;53.106;7.030;2023-08-20T06:30:38;16.20;;;12.90;;
51654;SDS011;37732;53.106;7.030;2023-08-20T06:33:04;18.30;;;13.02;;
51654;SDS011;37732;53.106;7.030;2023-08-20T06:35:31;16.67;;;13.20;;
51654;SDS011;37732;53.106;7.030;2023-08-20T06:38:03;14.63;;;12.65;;
51654;SDS011;37732;53.106;7.030;2023-08-20T06:40:30;17.80;;;13.07;;
51654;SDS011;37732;53.106;7.030;2023-08-20T06:43:00;13.27;;;11.73;;
51654;SDS011;37732;53.106;7.030;2023-08-20T06:45:27;15.07;;;12.05;;
51654;SDS011;37732;53.106;7.030;2023-08-20T06:47:53;13.68;;;11.05;;
51654;SDS011;37732;53.106;7.030;2023-08-20T06:50:19;16.63;;;10.30;;
51654;SDS011;37732;53.106;7.030;2023-08-20T06:52:46;13.23;;;10.35;;
51654;SDS011;37732;53.106;7.030;2023-08-20T06:55:12;13.63;;;9.15;;
51654;SDS011;37732;53.106;7.030;2023-08-20T06:57:38;14.40;;;10.80;;
51654;SDS011;37732;53.106;7.030;2023-08-20T07:00:05;12.52;;;9.57;;
51654;SDS011;37732;53.106;7.030;2023-08-20T07:02:35;14.35;;;9.60;;
51654;SDS011;37732;53.106;7.030;2023-08-20T07:05:02;13.05;;;9.20;;
51654;SDS011;37732;53.106;7.030;2023-08-20T07:07:29;13.07;;;7.88;;
51654;SDS011;37732;53.106;7.030;2023-08-20T07:09:55;13.93;;;7.78;;
51654;SDS011;37732;53.106;7.030;2023-08-20T07:12:21;14.27;;;9.63;;
51654;SDS011;37732;53.106;7.030;2023-08-20T07:14:49;12.70;;;7.90;;
51654;SDS011;37732;53.106;7.030;2023-08-20T07:17:16;11.57;;;7.80;;
51654;SDS011;37732;53.106;7.030;2023-08-20T07:19:42;10.70;;;7.03;;
51654;SDS011;37732;53.106;7.030;2023-08-20T07:22:11;11.15;;;6.60;;
51654;SDS011;37732;53.106;7.030;2023-08-20T07:24:41;8.68;;;6.72;;
51654;SDS011;37732;53.106;7.030;2023-08-20T07:27:07;11.50;;;5.60;;
51654;SDS011;37732;53.106;7.030;2023-08-20T07:29:41;13.48;;;6.68;;
51654;SDS011;37732;53.106;7.030;2023-08-20T07:32:07;10.65;;;5.63;;
51654;SDS011;37732;53.106;7.030;2023-08-20T07:34:33;8.90;;;5.35;;
51654;SDS011;37732;53.106;7.030;2023-08-20T07:37:00;8.60;;;4.75;;
51654;SDS011;37732;53.106;7.030;2023-08-20T07:39:30;10.90;;;4.70;;
51654;SDS011;37732;53.106;7.030;2023-08-20T07:41:56;13.00;;;5.55;;
51654;SDS011;37732;53.106;7.030;2023-08-20T07:44:23;8.57;;;4.93;;
51654;SDS011;37732;53.106;7.030;2023-08-20T07:46:52;12.40;;;4.78;;
51654;SDS011;37732;53.106;7.030;2023-08-20T07:49:18;8.00;;;4.55;;
51654;SDS011;37732;53.106;7.030;2023-08-20T07:51:46;8.77;;;4.28;;
51654;SDS011;37732;53.106;7.030;2023-08-20T07:54:14;9.57;;;4.45;;
51654;SDS011;37732;53.106;7.030;2023-08-20T07:56:40;8.05;;;4.63;;
51654;SDS011;37732;53.106;7.030;2023-08-20T07:59:07;10.00;;;4.47;;
51654;SDS011;37732;53.106;7.030;2023-08-20T08:01:35;11.63;;;4.35;;
51654;SDS011;37732;53.106;7.030;2023-08-20T08:04:02;10.63;;;3.70;;
51654;SDS011;37732;53.106;7.030;2023-08-20T08:06:28;9.15;;;4.55;;
51654;SDS011;37732;53.106;7.030;2023-08-20T08:08:55;7.72;;;4.00;;
51654;SDS011;37732;53.106;7.030;2023-08-20T08:11:21;8.40;;;3.80;;
51654;SDS011;37732;53.106;7.030;2023-08-20T08:13:47;8.45;;;3.40;;
51654;SDS011;37732;53.106;7.030;2023-08-20T08:16:16;11.95;;;3.92;;
51654;SDS011;37732;53.106;7.030;2023-08-20T08:18:42;5.80;;;3.00;;
51654;SDS011;37732;53.106;7.030;2023-08-20T08:21:08;7.80;;;3.10;;
51654;SDS011;37732;53.106;7.030;2023-08-20T08:23:37;9.73;;;3.35;;
51654;SDS011;37732;53.106;7.030;2023-08-20T08:26:04;7.70;;;2.97;;
51654;SDS011;37732;53.106;7.030;2023-08-20T08:28:30;9.00;;;3.30;;
51654;SDS011;37732;53.106;7.030;2023-08-20T08:30:57;6.07;;;2.95;;
51654;SDS011;37732;53.106;7.030;2023-08-20T08:33:24;11.48;;;3.25;;
51654;SDS011;37732;53.106;7.030;2023-08-20T08:35:50;9.30;;;3.53;;
51654;SDS011;37732;53.106;7.030;2023-08-20T08:38:16;10.90;;;3.30;;
51654;SDS011;37732;53.106;7.030;2023-08-20T08:40:45;9.32;;;3.60;;
51654;SDS011;37732;53.106;7.030;2023-08-20T08:43:11;8.90;;;3.60;;
51654;SDS011;37732;53.106;7.030;2023-08-20T08:45:44;11.63;;;3.33;;
51654;SDS011;37732;53.106;7.030;2023-08-20T08:48:15;8.45;;;2.58;;
51654;SDS011;37732;53.106;7.030;2023-08-20T08:50:42;8.18;;;3.15;;
51654;SDS011;37732;53.106;7.030;2023-08-20T08:53:09;7.53;;;2.85;;
51654;SDS011;37732;53.106;7.030;2023-08-20T08:55:36;8.75;;;2.88;;
51654;SDS011;37732;53.106;7.030;2023-08-20T08:58:02;6.72;;;2.80;;
51654;SDS011;37732;53.106;7.030;2023-08-20T09:00:33;6.63;;;2.88;;
51654;SDS011;37732;53.106;7.030;2023-08-20T09:02:59;10.70;;;2.60;;
51654;SDS011;37732;53.106;7.030;2023-08-20T09:05:25;6.72;;;2.35;;
51654;SDS011;37732;53.106;7.030;2023-08-20T09:07:56;8.23;;;2.60;;
51654;SDS011;37732;53.106;7.030;2023-08-20T09:10:26;7.45;;;2.70;;
51654;SDS011;37732;53.106;7.030;2023-08-20T09:12:57;19.08;;;4.50;;
51654;SDS011;37732;53.106;7.030;2023-08-20T09:15:33;6.97;;;2.30;;
51654;SDS011;37732;53.106;7.030;2023-08-20T09:18:04;8.27;;;2.70;;
51654;SDS011;37732;53.106;7.030;2023-08-20T09:20:38;5.82;;;2.40;;
51654;SDS011;37732;53.106;7.030;2023-08-20T09:23:08;5.82;;;2.33;;
51654;SDS011;37732;53.106;7.030;2023-08-20T09:25:38;8.75;;;2.33;;
51654;SDS011;37732;53.106;7.030;2023-08-20T09:28:05;6.10;;;2.03;;
51654;SDS011;37732;53.106;7.030;2023-08-20T09:30:31;5.05;;;2.05;;
51654;SDS011;37732;53.106;7.030;2023-08-20T09:35:37;6.82;;;1.95;;
51654;SDS011;37732;53.106;7.030;2023-08-20T09:38:04;6.88;;;2.45;;
51654;SDS011;37732;53.106;7.030;2023-08-20T09:40:31;6.93;;;2.70;;
51654;SDS011;37732;53.106;7.030;2023-08-20T09:42:57;8.40;;;2.30;;
51654;SDS011;37732;53.106;7.030;2023-08-20T09:45:27;5.68;;;2.58;;
51654;SDS011;37732;53.106;7.030;2023-08-20T09:47:54;8.18;;;2.72;;
51654;SDS011;37732;53.106;7.030;2023-08-20T09:50:24;4.88;;;2.03;;
51654;SDS011;37732;53.106;7.030;2023-08-20T09:55:20;6.05;;;1.95;;
51654;SDS011;37732;53.106;7.030;2023-08-20T09:57:50;4.93;;;1.95;;
51654;SDS011;37732;53.106;7.030;2023-08-20T10:00:21;6.00;;;2.00;;
51654;SDS011;37732;53.106;7.030;2023-08-20T10:02:56;5.28;;;1.90;;
51654;SDS011;37732;53.106;7.030;2023-08-20T10:05:23;5.60;;;2.10;;
51654;SDS011;37732;53.106;7.030;2023-08-20T10:07:50;6.82;;;2.00;;
51654;SDS011;37732;53.106;7.030;2023-08-20T10:10:18;4.72;;;2.00;;
51654;SDS011;37732;53.106;7.030;2023-08-20T10:12:46;4.97;;;2.00;;
51654;SDS011;37732;53.106;7.030;2023-08-20T10:15:14;5.70;;;1.92;;
51654;SDS011;37732;53.106;7.030;2023-08-20T10:17:41;6.05;;;1.88;;
51654;SDS011;37732;53.106;7.030;2023-08-20T10:20:13;3.88;;;1.70;;
51654;SDS011;37732;53.106;7.030;2023-08-20T10:22:41;5.32;;;1.80;;
51654;SDS011;37732;53.106;7.030;2023-08-20T10:25:11;3.90;;;1.65;;
51654;SDS011;37732;53.106;7.030;2023-08-20T10:36:19;12.02;;;2.30;;
51654;SDS011;37732;53.106;7.030;2023-08-20T10:38:54;5.40;;;1.92;;
51654;SDS011;37732;53.106;7.030;2023-08-20T10:41:25;5.18;;;1.95;;
51654;SDS011;37732;53.106;7.030;2023-08-20T10:44:00;4.32;;;1.63;;
51654;SDS011;37732;53.106;7.030;2023-08-20T10:46:29;5.68;;;2.03;;
51654;SDS011;37732;53.106;7.030;2023-08-20T10:49:02;5.85;;;1.98;;
51654;SDS011;37732;53.106;7.030;2023-08-20T10:51:35;7.05;;;2.22;;
51654;SDS011;37732;53.106;7.030;2023-08-20T10:56:38;5.13;;;2.08;;
51654;SDS011;37732;53.106;7.030;2023-08-20T10:59:31;4.75;;;2.22;;
51654;SDS011;37732;53.106;7.030;2023-08-20T11:01:56;5.20;;;2.13;;
51654;SDS011;37732;53.106;7.030;2023-08-20T11:04:24;4.18;;;2.35;;
51654;SDS011;37732;53.106;7.030;2023-08-20T11:06:54;5.90;;;2.60;;
51654;SDS011;37732;53.106;7.030;2023-08-20T11:09:22;6.75;;;2.17;;
51654;SDS011;37732;53.106;7.030;2023-08-20T11:11:52;7.43;;;2.53;;
51654;SDS011;37732;53.106;7.030;2023-08-20T11:14:19;6.55;;;2.50;;
51654;SDS011;37732;53.106;7.030;2023-08-20T11:16:48;4.35;;;2.00;;
51654;SDS011;37732;53.106;7.030;2023-08-20T11:19:15;6.28;;;2.10;;
51654;SDS011;37732;53.106;7.030;2023-08-20T11:21:49;7.70;;;2.60;;
51654;SDS011;37732;53.106;7.030;2023-08-20T11:24:16;5.50;;;2.08;;
51654;SDS011;37732;53.106;7.030;2023-08-20T11:26:47;6.10;;;2.20;;
51654;SDS011;37732;53.106;7.030;2023-08-20T11:29:14;5.03;;;1.95;;
51654;SDS011;37732;53.106;7.030;2023-08-20T11:31:47;5.55;;;2.33;;
51654;SDS011;37732;53.106;7.030;2023-08-20T11:34:19;5.40;;;2.20;;
51654;SDS011;37732;53.106;7.030;2023-08-20T11:36:45;5.05;;;1.95;;
51654;SDS011;37732;53.106;7.030;2023-08-20T11:39:15;4.68;;;1.98;;
51654;SDS011;37732;53.106;7.030;2023-08-20T11:41:41;4.20;;;1.85;;
51654;SDS011;37732;53.106;7.030;2023-08-20T11:44:19;4.63;;;1.60;;
51654;SDS011;37732;53.106;7.030;2023-08-20T11:46:47;4.43;;;1.90;;
51654;SDS011;37732;53.106;7.030;2023-08-20T11:49:14;3.78;;;1.73;;
51654;SDS011;37732;53.106;7.030;2023-08-20T11:51:47;3.40;;;1.55;;
51654;SDS011;37732;53.106;7.030;2023-08-20T11:54:15;7.63;;;2.00;;
51654;SDS011;37732;53.106;7.030;2023-08-20T11:56:49;5.38;;;1.88;;
51654;SDS011;37732;53.106;7.030;2023-08-20T11:59:20;5.25;;;1.90;;
51654;SDS011;37732;53.106;7.030;2023-08-20T12:01:59;4.30;;;1.75;;
51654;SDS011;37732;53.106;7.030;2023-08-20T12:04:30;3.88;;;2.00;;
51654;SDS011;37732;53.106;7.030;2023-08-20T12:09:32;6.47;;;2.00;;
51654;SDS011;37732;53.106;7.030;2023-08-20T12:12:10;4.50;;;1.90;;
51654;SDS011;37732;53.106;7.030;2023-08-20T12:14:36;3.63;;;2.30;;
51654;SDS011;37732;53.106;7.030;2023-08-20T12:17:02;3.65;;;1.45;;
51654;SDS011;37732;53.106;7.030;2023-08-20T12:19:30;6.00;;;2.42;;
51654;SDS011;37732;53.106;7.030;2023-08-20T12:21:56;4.57;;;1.60;;
51654;SDS011;37732;53.106;7.030;2023-08-20T12:24:22;5.00;;;1.80;;
51654;SDS011;37732;53.106;7.030;2023-08-20T12:26:48;5.20;;;1.95;;
51654;SDS011;37732;53.106;7.030;2023-08-20T12:29:15;4.63;;;1.90;;
51654;SDS011;37732;53.106;7.030;2023-08-20T12:31:41;6.25;;;1.77;;
51654;SDS011;37732;53.106;7.030;2023-08-20T12:34:09;4.38;;;1.70;;
51654;SDS011;37732;53.106;7.030;2023-08-20T12:36:38;4.22;;;1.63;;
51654;SDS011;37732;53.106;7.030;2023-08-20T12:39:04;2.63;;;1.35;;
51654;SDS011;37732;53.106;7.030;2023-08-20T12:41:30;3.60;;;1.60;;
51654;SDS011;37732;53.106;7.030;2023-08-20T12:43:57;6.65;;;1.95;;
51654;SDS011;37732;53.106;7.030;2023-08-20T12:46:23;3.92;;;1.60;;
51654;SDS011;37732;53.106;7.030;2023-08-20T12:48:49;6.45;;;1.70;;
51654;SDS011;37732;53.106;7.030;2023-08-20T12:51:16;3.38;;;1.55;;
51654;SDS011;37732;53.106;7.030;2023-08-20T12:53:46;4.72;;;1.60;;
51654;SDS011;37732;53.106;7.030;2023-08-20T12:56:12;4.68;;;1.55;;
51654;SDS011;37732;53.106;7.030;2023-08-20T12:58:38;3.88;;;1.50;;
51654;SDS011;37732;53.106;7.030;2023-08-20T13:01:07;4.97;;;1.58;;
51654;SDS011;37732;53.106;7.030;2023-08-20T13:03:34;4.55;;;2.00;;
51654;SDS011;37732;53.106;7.030;2023-08-20T13:06:00;4.30;;;1.75;;
51654;SDS011;37732;53.106;7.030;2023-08-20T13:08:27;3.90;;;1.88;;
51654;SDS011;37732;53.106;7.030;2023-08-20T13:10:55;3.58;;;1.40;;
51654;SDS011;37732;53.106;7.030;2023-08-20T13:13:27;3.22;;;1.40;;
51654;SDS011;37732;53.106;7.030;2023-08-20T13:15:56;6.25;;;1.60;;
51654;SDS011;37732;53.106;7.030;2023-08-20T13:18:22;4.20;;;1.48;;
51654;SDS011;37732;53.106;7.030;2023-08-20T13:20:52;5.43;;;1.55;;
51654;SDS011;37732;53.106;7.030;2023-08-20T13:23:22;3.10;;;1.75;;
51654;SDS011;37732;53.106;7.030;2023-08-20T13:25:51;4.55;;;1.70;;
51654;SDS011;37732;53.106;7.030;2023-08-20T13:28:18;6.00;;;1.60;;
51654;SDS011;37732;53.106;7.030;2023-08-20T13:30:44;3.78;;;1.60;;
51654;SDS011;37732;53.106;7.030;2023-08-20T13:33:11;4.40;;;1.65;;
51654;SDS011;37732;53.106;7.030;2023-08-20T13:35:42;2.10;;;1.45;;
51654;SDS011;37732;53.106;7.030;2023-08-20T13:38:09;2.72;;;1.35;;
51654;SDS011;37732;53.106;7.030;2023-08-20T13:40:35;3.00;;;1.40;;
51654;SDS011;37732;53.106;7.030;2023-08-20T13:43:02;3.88;;;1.70;;
51654;SDS011;37732;53.106;7.030;2023-08-20T13:45:28;4.68;;;1.50;;
51654;SDS011;37732;53.106;7.030;2023-08-20T13:47:53;5.05;;;1.50;;
51654;SDS011;37732;53.106;7.030;2023-08-20T13:50:20;3.20;;;1.50;;
51654;SDS011;37732;53.106;7.030;2023-08-20T13:52:49;4.88;;;1.70;;
51654;SDS011;37732;53.106;7.030;2023-08-20T13:55:16;3.22;;;1.38;;
51654;SDS011;37732;53.106;7.030;2023-08-20T13:57:43;5.90;;;1.70;;
51654;SDS011;37732;53.106;7.030;2023-08-20T14:00:09;4.45;;;1.60;;
51654;SDS011;37732;53.106;7.030;2023-08-20T14:02:40;5.22;;;1.50;;
51654;SDS011;37732;53.106;7.030;2023-08-20T14:05:06;3.63;;;1.73;;
51654;SDS011;37732;53.106;7.030;2023-08-20T14:07:33;3.50;;;1.65;;
51654;SDS011;37732;53.106;7.030;2023-08-20T14:10:00;3.20;;;1.50;;
51654;SDS011;37732;53.106;7.030;2023-08-20T14:12:30;4.07;;;1.80;;
51654;SDS011;37732;53.106;7.030;2023-08-20T14:14:56;1.98;;;1.45;;
51654;SDS011;37732;53.106;7.030;2023-08-20T14:17:23;3.20;;;1.70;;
51654;SDS011;37732;53.106;7.030;2023-08-20T14:19:49;6.00;;;1.55;;
51654;SDS011;37732;53.106;7.030;2023-08-20T14:22:16;4.63;;;1.73;;
51654;SDS011;37732;53.106;7.030;2023-08-20T14:24:43;5.40;;;2.13;;
51654;SDS011;37732;53.106;7.030;2023-08-20T14:27:09;5.35;;;1.70;;
51654;SDS011;37732;53.106;7.030;2023-08-20T14:29:35;4.88;;;2.22;;
51654;SDS011;37732;53.106;7.030;2023-08-20T14:32:04;7.18;;;2.25;;
51654;SDS011;37732;53.106;7.030;2023-08-20T14:34:30;5.68;;;2.10;;
51654;SDS011;37732;53.106;7.030;2023-08-20T14:36:56;7.63;;;2.70;;
51654;SDS011;37732;53.106;7.030;2023-08-20T14:39:22;6.55;;;2.00;;
51654;SDS011;37732;53.106;7.030;2023-08-20T14:41:48;6.03;;;2.10;;
51654;SDS011;37732;53.106;7.030;2023-08-20T14:44:14;4.82;;;2.10;;
51654;SDS011;37732;53.106;7.030;2023-08-20T14:46:40;5.38;;;1.88;;
51654;SDS011;37732;53.106;7.030;2023-08-20T14:49:06;3.63;;;1.88;;
51654;SDS011;37732;53.106;7.030;2023-08-20T14:51:32;4.78;;;1.95;;
51654;SDS011;37732;53.106;7.030;2023-08-20T14:54:02;4.50;;;2.10;;
51654;SDS011;37732;53.106;7.030;2023-08-20T14:56:29;3.88;;;1.80;;
51654;SDS011;37732;53.106;7.030;2023-08-20T14:58:55;3.45;;;1.88;;
51654;SDS011;37732;53.106;7.030;2023-08-20T15:01:21;3.47;;;1.80;;
51654;SDS011;37732;53.106;7.030;2023-08-20T15:03:47;5.68;;;2.55;;
51654;SDS011;37732;53.106;7.030;2023-08-20T15:06:18;4.57;;;2.03;;
51654;SDS011;37732;53.106;7.030;2023-08-20T15:08:51;5.75;;;2.13;;
51654;SDS011;37732;53.106;7.030;2023-08-20T15:11:17;3.40;;;1.92;;
51654;SDS011;37732;53.106;7.030;2023-08-20T15:13:43;5.38;;;1.92;;
51654;SDS011;37732;53.106;7.030;2023-08-20T15:16:09;6.10;;;2.03;;